Startpagina
METAR-TAF:

METAR-TAF

Vliegvelden :

Aeropuerto Adolfo Suárez Madrid-Barajas

Madrid, Spanje

breedte: 40-27N, lengte: 003-33W, hoogte: 609 m

Actueel weer

Dit bericht is 16 minuten geleden gemaakt, om 05:00 UTC
Wind 2 kt uit het noordnoordwesten
Temperatuur 11°C
Vochtigheid 100%
Druk 1022 hPa
Zicht 10 km of meer
geen wolken onder 1500 m en geen cumulonimbus

METAR: LEMD 220500Z 34002KT CAVOK 11/11 Q1022 NOSIG

Tijdstip: 07:16 (05:16 UTC)

Verwachting

Dit bericht is 6 uur en het 16 minuten geleden gemaakt, om 23:00 UTC
Verwachting geldig van 22 om 00 UTC tot 23 om 06 UTC
Wind 3 kt uit variabele richting
Zicht 10 km of meer
geen wolken onder 1500 m en geen cumulonimbus
Tijdelijke
van 22 om 12 UTC tot 22 om 24 UTC
Wind 10 kt uit het noordoosten

TAF: LEMD 212300Z 2200/2306 VRB03KT CAVOK TX23/2214Z TN11/2207Z TEMPO 2212/2224 04010KT

Waarnemingen en weersverwachtingen van meer dan 4000 vliegvelden (METAR en TAF).

De beschikbare stations zijn de gele en rode punten op de kaart.

Ga met uw muis naar het station om de naam te zien.

Klik dan om waarnemingen en weersverwachtingen te zien.

kaart wijzigen: klik op de groene knoppen met een zwart kruis om in te zoomen, op de groene knop met een streepje om uit te zoomen of op de groene pijlen voor aangrenzende kaarten.


METAR-TAF: